Time;durP1;ratioP1;P1;durP2;ratioP2;P2;SDS_P1;SDS_P2;PMS_P1;PMS_P2;Temp;Humidity;BMP_temperature;BMP_pressure;BME280_temperature;BME280_humidity;BME280_pressure;Samples;Min_cycle;Max_cycle;Signal;HPM_P1;HPM_P2
2021/05/16 00:01:44;;;;;;;6.03;5.07;;;;;;;;;;4993522;28;20046;-58
2021/05/16 00:04:10;;;;;;;7.45;6.60;;;;;;;;;;4992367;28;20053;-58
2021/05/16 00:06:36;;;;;;;8.00;6.38;;;;;;;;;;4993758;28;20086;-58
2021/05/16 00:09:03;;;;;;;6.82;6.05;;;;;;;;;;4993710;28;20042;-58
2021/05/16 00:11:29;;;;;;;7.28;6.43;;;;;;;;;;4992182;28;20030;-58
2021/05/16 00:13:56;;;;;;;7.18;5.80;;;;;;;;;;4993528;28;20150;-58
2021/05/16 00:16:22;;;;;;;7.35;5.78;;;;;;;;;;4993806;28;20022;-59
2021/05/16 00:18:48;;;;;;;6.93;6.10;;;;;;;;;;4993455;28;20118;-58
2021/05/16 00:21:15;;;;;;;7.05;6.35;;;;;;;;;;4993489;28;20077;-58
2021/05/16 00:23:41;;;;;;;7.78;6.38;;;;;;;;;;4993812;28;20026;-59
2021/05/16 00:26:08;;;;;;;7.93;6.60;;;;;;;;;;4993586;28;20478;-58
2021/05/16 00:28:34;;;;;;;7.63;5.97;;;;;;;;;;4993677;28;20427;-58
2021/05/16 00:31:01;;;;;;;7.05;6.20;;;;;;;;;;4991551;28;20026;-58
2021/05/16 00:33:27;;;;;;;7.88;6.30;;;;;;;;;;4993572;28;20029;-58
2021/05/16 00:35:53;;;;;;;6.85;5.65;;;;;;;;;;4993114;28;20027;-58
2021/05/16 00:38:19;;;;;;;9.20;5.85;;;;;;;;;;4993398;28;20057;-58
2021/05/16 00:40:45;;;;;;;6.82;6.20;;;;;;;;;;4992662;28;20030;-58
2021/05/16 00:43:12;;;;;;;7.90;6.05;;;;;;;;;;4993131;28;20140;-58
2021/05/16 00:45:38;;;;;;;7.25;6.40;;;;;;;;;;4993153;28;20517;-58
2021/05/16 00:48:06;;;;;;;8.00;6.78;;;;;;;;;;4993274;28;20054;-59
2021/05/16 00:50:43;;;;;;;7.82;6.28;;;;;;;;;;4991656;28;20049;-58
2021/05/16 00:53:09;;;;;;;10.15;5.80;;;;;;;;;;4974060;28;20029;-58
2021/05/16 00:55:36;;;;;;;6.15;5.55;;;;;;;;;;4984198;28;20025;-58
2021/05/16 00:58:03;;;;;;;7.30;4.60;;;;;;;;;;4993221;28;20477;-59
2021/05/16 01:00:32;;;;;;;5.30;4.78;;;;;;;;;;4992857;28;20081;-58
2021/05/16 01:02:58;;;;;;;5.32;4.82;;;;;;;;;;4993214;28;20022;-59
2021/05/16 01:05:25;;;;;;;5.50;4.90;;;;;;;;;;4993126;28;20125;-58
2021/05/16 01:07:51;;;;;;;5.95;4.35;;;;;;;;;;4992821;28;20101;-58
2021/05/16 01:10:19;;;;;;;19.60;4.80;;;;;;;;;;4992614;28;20038;-57
2021/05/16 01:12:49;;;;;;;6.60;4.75;;;;;;;;;;4992704;28;20097;-57
2021/05/16 01:15:18;;;;;;;7.32;4.95;;;;;;;;;;4992564;28;20109;-57
2021/05/16 01:17:44;;;;;;;5.43;4.53;;;;;;;;;;4993180;28;20030;-58
2021/05/16 01:20:12;;;;;;;5.22;4.00;;;;;;;;;;4992556;28;20109;-58
2021/05/16 01:22:38;;;;;;;4.72;4.00;;;;;;;;;;4992758;28;20030;-57
2021/05/16 01:25:06;;;;;;;5.30;4.45;;;;;;;;;;4992348;28;20354;-59
2021/05/16 01:27:32;;;;;;;4.35;3.92;;;;;;;;;;4991339;28;20461;-58
2021/05/16 01:29:58;;;;;;;5.93;4.07;;;;;;;;;;4992596;28;20022;-58
2021/05/16 01:32:25;;;;;;;4.35;3.95;;;;;;;;;;4979981;28;20026;-58
2021/05/16 01:34:51;;;;;;;5.45;4.20;;;;;;;;;;4977748;28;20105;-58
2021/05/16 01:37:18;;;;;;;5.65;3.92;;;;;;;;;;4991476;28;20046;-58
2021/05/16 01:39:47;;;;;;;4.80;4.30;;;;;;;;;;4990654;28;20474;-58
2021/05/16 01:42:13;;;;;;;6.13;4.13;;;;;;;;;;4990095;28;20051;-58
2021/05/16 01:44:40;;;;;;;4.68;3.80;;;;;;;;;;4984969;28;20466;-58
2021/05/16 01:47:06;;;;;;;4.35;3.95;;;;;;;;;;4992542;28;20022;-58
2021/05/16 01:49:40;;;;;;;5.75;4.70;;;;;;;;;;4992457;28;20026;-58
2021/05/16 01:52:06;;;;;;;5.75;4.18;;;;;;;;;;4987954;28;20069;-58
2021/05/16 01:54:33;;;;;;;5.75;4.40;;;;;;;;;;4989949;28;20095;-58
2021/05/16 01:56:59;;;;;;;5.82;3.97;;;;;;;;;;4990692;28;20027;-58
2021/05/16 01:59:25;;;;;;;5.68;4.10;;;;;;;;;;4966493;28;20034;-58
2021/05/16 02:01:52;;;;;;;4.75;3.97;;;;;;;;;;4978449;28;20053;-58
2021/05/16 02:04:18;;;;;;;6.22;5.10;;;;;;;;;;4991901;28;20132;-58
2021/05/16 02:06:44;;;;;;;5.85;4.65;;;;;;;;;;4992281;28;20149;-58
2021/05/16 02:09:10;;;;;;;5.28;4.55;;;;;;;;;;4992426;28;20034;-58
2021/05/16 02:11:37;;;;;;;5.75;4.43;;;;;;;;;;4990032;28;20410;-58
2021/05/16 02:14:04;;;;;;;5.10;4.60;;;;;;;;;;4985626;28;20463;-58
2021/05/16 02:16:31;;;;;;;6.97;4.40;;;;;;;;;;4991761;28;20093;-58
2021/05/16 02:18:57;;;;;;;5.70;4.10;;;;;;;;;;4981907;28;20042;-58
2021/05/16 02:21:23;;;;;;;6.45;4.38;;;;;;;;;;4993391;28;20052;-57
2021/05/16 02:23:50;;;;;;;5.82;4.15;;;;;;;;;;4995891;28;20371;-58
2021/05/16 02:26:16;;;;;;;6.30;4.00;;;;;;;;;;4994284;28;20038;-58
2021/05/16 02:28:42;;;;;;;4.82;3.80;;;;;;;;;;4994438;28;20056;-57
2021/05/16 02:31:13;;;;;;;4.88;3.67;;;;;;;;;;4992314;28;20025;-57
2021/05/16 02:33:40;;;;;;;4.68;3.90;;;;;;;;;;4994888;28;20034;-58
2021/05/16 02:36:06;;;;;;;4.45;3.95;;;;;;;;;;4990933;28;20050;-58
2021/05/16 02:38:32;;;;;;;5.78;3.70;;;;;;;;;;4995546;28;20030;-57
2021/05/16 02:40:58;;;;;;;4.53;3.75;;;;;;;;;;4995102;28;20100;-57
2021/05/16 02:43:25;;;;;;;4.47;3.42;;;;;;;;;;4995474;28;20112;-57
2021/05/16 02:45:51;;;;;;;7.03;3.95;;;;;;;;;;4993897;28;20542;-57
2021/05/16 02:48:17;;;;;;;4.68;4.25;;;;;;;;;;4993311;28;20034;-57
2021/05/16 02:50:43;;;;;;;6.85;4.35;;;;;;;;;;4994507;28;20454;-57
2021/05/16 02:53:09;;;;;;;6.63;4.60;;;;;;;;;;4995471;28;20402;-57
2021/05/16 02:55:36;;;;;;;5.40;4.20;;;;;;;;;;4994831;28;20033;-57
2021/05/16 02:58:02;;;;;;;5.20;4.22;;;;;;;;;;4995300;28;20046;-58
2021/05/16 03:00:28;;;;;;;5.20;4.20;;;;;;;;;;4994816;28;20089;-58
2021/05/16 03:02:54;;;;;;;6.72;4.15;;;;;;;;;;4994603;28;20047;-58
2021/05/16 03:05:20;;;;;;;5.85;3.85;;;;;;;;;;4991913;28;20049;-58
2021/05/16 03:07:47;;;;;;;8.50;4.25;;;;;;;;;;4993721;28;20026;-57
2021/05/16 03:10:13;;;;;;;4.07;3.67;;;;;;;;;;4993612;28;20080;-57
2021/05/16 03:12:39;;;;;;;4.57;3.95;;;;;;;;;;4994847;28;20029;-57
2021/05/16 03:15:05;;;;;;;4.22;3.78;;;;;;;;;;4993626;28;20085;-57
2021/05/16 03:17:32;;;;;;;5.13;3.50;;;;;;;;;;4993797;28;20029;-58
2021/05/16 03:19:58;;;;;;;4.22;3.83;;;;;;;;;;4994537;28;20489;-59
2021/05/16 03:22:25;;;;;;;4.63;3.60;;;;;;;;;;4994229;28;20149;-56
2021/05/16 03:24:51;;;;;;;4.22;3.70;;;;;;;;;;4994259;28;20026;-56
2021/05/16 03:27:18;;;;;;;4.57;3.60;;;;;;;;;;4994787;28;20022;-57
2021/05/16 03:29:44;;;;;;;4.90;4.00;;;;;;;;;;4993262;28;20117;-57
2021/05/16 03:32:10;;;;;;;3.50;3.20;;;;;;;;;;4993213;28;20065;-57
2021/05/16 03:34:36;;;;;;;4.18;3.50;;;;;;;;;;4993064;28;20152;-57
2021/05/16 03:37:02;;;;;;;4.80;3.60;;;;;;;;;;4991529;28;20030;-57
2021/05/16 03:39:29;;;;;;;6.13;3.60;;;;;;;;;;4989936;28;20113;-58
2021/05/16 03:41:56;;;;;;;4.63;3.83;;;;;;;;;;4981269;28;20046;-58
2021/05/16 03:44:23;;;;;;;5.65;4.25;;;;;;;;;;4994285;28;20530;-58
2021/05/16 03:46:49;;;;;;;4.25;3.08;;;;;;;;;;4994333;28;20049;-57
2021/05/16 03:49:18;;;;;;;4.38;3.47;;;;;;;;;;4994085;28;20077;-58
2021/05/16 03:51:44;;;;;;;4.93;3.53;;;;;;;;;;4993809;28;20045;-58
2021/05/16 03:54:11;;;;;;;3.70;3.20;;;;;;;;;;4990532;28;20035;-58
2021/05/16 03:56:38;;;;;;;5.68;3.80;;;;;;;;;;4994408;28;20439;-58
2021/05/16 03:59:04;;;;;;;5.18;3.40;;;;;;;;;;4981535;28;20023;-58
2021/05/16 04:01:31;;;;;;;5.00;3.50;;;;;;;;;;5007650;28;20438;-60
2021/05/16 04:03:57;;;;;;;4.03;3.63;;;;;;;;;;4993976;28;20096;-57
2021/05/16 04:06:23;;;;;;;4.18;3.63;;;;;;;;;;4993937;28;20061;-57
2021/05/16 04:08:50;;;;;;;4.65;3.53;;;;;;;;;;4993196;28;20022;-57
2021/05/16 04:11:16;;;;;;;4.78;3.85;;;;;;;;;;4991682;28;20027;-57
2021/05/16 04:13:42;;;;;;;5.50;3.65;;;;;;;;;;4989700;28;20022;-58
2021/05/16 04:16:08;;;;;;;5.50;3.65;;;;;;;;;;4989576;28;20117;-58
2021/05/16 04:18:35;;;;;;;5.35;4.03;;;;;;;;;;4991785;28;20029;-57
2021/05/16 04:21:02;;;;;;;5.85;3.78;;;;;;;;;;4990510;28;20517;-57
2021/05/16 04:23:28;;;;;;;4.28;3.35;;;;;;;;;;4993949;28;20343;-58
2021/05/16 04:25:54;;;;;;;5.95;3.60;;;;;;;;;;4993161;28;20032;-58
2021/05/16 04:28:20;;;;;;;4.90;3.85;;;;;;;;;;4993407;28;20072;-58
2021/05/16 04:30:47;;;;;;;5.40;3.50;;;;;;;;;;4984236;28;20023;-58
2021/05/16 04:33:14;;;;;;;4.53;3.70;;;;;;;;;;4983499;28;20462;-57
2021/05/16 04:35:40;;;;;;;4.35;3.33;;;;;;;;;;4986274;28;20031;-57
2021/05/16 04:38:06;;;;;;;4.57;3.70;;;;;;;;;;4991942;28;20026;-57
2021/05/16 04:40:32;;;;;;;4.93;3.88;;;;;;;;;;4991689;28;20022;-57
2021/05/16 04:42:58;;;;;;;3.78;3.35;;;;;;;;;;4990765;28;20398;-60
2021/05/16 04:45:24;;;;;;;3.92;3.53;;;;;;;;;;4992250;28;20072;-57
2021/05/16 04:47:51;;;;;;;4.20;3.35;;;;;;;;;;4977631;28;20110;-59
2021/05/16 04:50:18;;;;;;;4.18;3.45;;;;;;;;;;4991938;28;20049;-58
2021/05/16 04:52:45;;;;;;;4.72;3.47;;;;;;;;;;4983420;28;20030;-59
2021/05/16 04:55:12;;;;;;;5.97;3.97;;;;;;;;;;4990228;28;20486;-59
2021/05/16 04:57:39;;;;;;;5.38;4.10;;;;;;;;;;4989771;28;20031;-58
2021/05/16 05:00:06;;;;;;;5.63;4.10;;;;;;;;;;4986692;28;20023;-59
2021/05/16 05:02:36;;;;;;;6.53;4.03;;;;;;;;;;4991475;28;20382;-58
2021/05/16 05:05:03;;;;;;;4.68;4.05;;;;;;;;;;4991408;28;20061;-58
2021/05/16 05:07:30;;;;;;;4.50;3.70;;;;;;;;;;4975616;28;20053;-58
2021/05/16 05:09:56;;;;;;;12.10;4.65;;;;;;;;;;4991626;28;20105;-58
2021/05/16 05:12:23;;;;;;;4.97;3.95;;;;;;;;;;4992921;28;20029;-59
2021/05/16 05:14:49;;;;;;;4.10;3.67;;;;;;;;;;4990997;28;20093;-59
2021/05/16 05:17:15;;;;;;;4.95;4.07;;;;;;;;;;4991518;28;20054;-59
2021/05/16 05:19:41;;;;;;;3.83;3.35;;;;;;;;;;4992470;28;20096;-59
2021/05/16 05:22:08;;;;;;;3.15;2.83;;;;;;;;;;4992256;28;20038;-58
2021/05/16 05:24:34;;;;;;;3.70;3.15;;;;;;;;;;4992464;28;20455;-59
2021/05/16 05:27:00;;;;;;;4.30;3.78;;;;;;;;;;4992745;28;20109;-58
2021/05/16 05:29:26;;;;;;;5.20;3.10;;;;;;;;;;4992472;28;20026;-59
2021/05/16 05:31:52;;;;;;;5.88;3.53;;;;;;;;;;4991285;28;20381;-59
2021/05/16 05:34:19;;;;;;;5.18;3.20;;;;;;;;;;4992659;28;20022;-59
2021/05/16 05:36:46;;;;;;;3.78;3.33;;;;;;;;;;4990375;28;20034;-58
2021/05/16 05:39:12;;;;;;;4.88;3.42;;;;;;;;;;4992391;28;20077;-57
2021/05/16 05:41:39;;;;;;;3.05;2.75;;;;;;;;;;4992285;28;20493;-57
2021/05/16 05:44:05;;;;;;;4.78;3.42;;;;;;;;;;4992077;28;20065;-57
2021/05/16 05:46:31;;;;;;;3.78;3.28;;;;;;;;;;4992259;28;20023;-57
2021/05/16 05:48:57;;;;;;;4.45;3.42;;;;;;;;;;4990890;28;20374;-57
2021/05/16 05:51:24;;;;;;;6.10;4.20;;;;;;;;;;4992339;28;20497;-57
2021/05/16 05:53:50;;;;;;;5.97;3.92;;;;;;;;;;4992214;28;20101;-58
2021/05/16 05:56:16;;;;;;;5.30;3.58;;;;;;;;;;4994322;28;20031;-58
2021/05/16 05:58:43;;;;;;;5.20;3.30;;;;;;;;;;4996152;28;20154;-57
2021/05/16 06:01:09;;;;;;;3.83;3.13;;;;;;;;;;4995407;28;20033;-58
2021/05/16 06:03:35;;;;;;;3.55;2.80;;;;;;;;;;4996513;28;20046;-57
2021/05/16 06:06:01;;;;;;;3.97;3.10;;;;;;;;;;4996024;28;20593;-58
2021/05/16 06:08:28;;;;;;;4.35;3.67;;;;;;;;;;4996312;28;20023;-57
2021/05/16 06:10:54;;;;;;;3.72;2.88;;;;;;;;;;4995963;28;20142;-58
2021/05/16 06:13:20;;;;;;;4.72;2.80;;;;;;;;;;4995574;28;20030;-57
2021/05/16 06:15:46;;;;;;;3.53;2.78;;;;;;;;;;4994370;28;20037;-58
2021/05/16 06:18:12;;;;;;;3.35;2.65;;;;;;;;;;4996052;28;20045;-58
2021/05/16 06:20:39;;;;;;;4.50;3.28;;;;;;;;;;4996061;28;20093;-58
2021/05/16 06:23:07;;;;;;;3.70;2.72;;;;;;;;;;4995741;28;20022;-58
2021/05/16 06:25:33;;;;;;;4.22;2.80;;;;;;;;;;4981211;28;20392;-57
2021/05/16 06:27:59;;;;;;;4.40;2.63;;;;;;;;;;4994203;28;20027;-57
2021/05/16 06:30:26;;;;;;;2.90;2.33;;;;;;;;;;4995875;28;20469;-57
2021/05/16 06:32:52;;;;;;;3.58;2.17;;;;;;;;;;4995467;28;20481;-57
2021/05/16 06:35:18;;;;;;;3.40;2.00;;;;;;;;;;4994102;28;20031;-57
2021/05/16 06:37:45;;;;;;;2.97;1.95;;;;;;;;;;4995562;28;20097;-57
2021/05/16 06:40:13;;;;;;;5.68;2.25;;;;;;;;;;4995752;28;20054;-57
2021/05/16 06:42:39;;;;;;;4.68;2.08;;;;;;;;;;4995386;28;20061;-58
2021/05/16 06:45:06;;;;;;;2.40;2.17;;;;;;;;;;4995355;28;20027;-58
2021/05/16 06:47:33;;;;;;;3.72;2.58;;;;;;;;;;4994245;28;20033;-58
2021/05/16 06:50:00;;;;;;;3.45;3.15;;;;;;;;;;4994122;28;20042;-58
2021/05/16 06:52:26;;;;;;;4.50;3.33;;;;;;;;;;4994188;28;20129;-58
2021/05/16 06:54:52;;;;;;;4.57;3.30;;;;;;;;;;4994570;28;20033;-59
2021/05/16 06:57:19;;;;;;;5.72;3.70;;;;;;;;;;4993667;28;20502;-58
2021/05/16 06:59:45;;;;;;;3.97;3.28;;;;;;;;;;4995604;28;20026;-58
2021/05/16 07:02:12;;;;;;;4.20;3.80;;;;;;;;;;4993327;28;20120;-58
2021/05/16 07:04:40;;;;;;;5.90;3.55;;;;;;;;;;4994635;28;20027;-58
2021/05/16 07:07:06;;;;;;;7.40;3.17;;;;;;;;;;4995276;28;20081;-58
2021/05/16 07:09:32;;;;;;;3.47;3.05;;;;;;;;;;4994881;28;20033;-58
2021/05/16 07:11:59;;;;;;;4.38;3.20;;;;;;;;;;4993275;28;20053;-59
2021/05/16 07:14:25;;;;;;;6.07;3.03;;;;;;;;;;4994696;28;20074;-58
2021/05/16 07:19:17;;;;;;;3.47;2.80;;;;;;;;;;4994478;28;20522;-58
2021/05/16 07:21:43;;;;;;;3.67;2.50;;;;;;;;;;4994931;28;20026;-58
2021/05/16 07:24:09;;;;;;;4.00;2.40;;;;;;;;;;4993245;28;20034;-59
2021/05/16 07:26:35;;;;;;;2.83;2.33;;;;;;;;;;4994521;28;20034;-58
2021/05/16 07:29:02;;;;;;;3.53;2.63;;;;;;;;;;4994545;28;20057;-58
2021/05/16 07:31:28;;;;;;;2.97;2.33;;;;;;;;;;4993315;28;20030;-57
2021/05/16 07:33:54;;;;;;;3.25;2.40;;;;;;;;;;4994516;28;20023;-59
2021/05/16 07:36:20;;;;;;;4.97;3.03;;;;;;;;;;4993046;28;20085;-57
2021/05/16 07:38:46;;;;;;;3.80;2.80;;;;;;;;;;4993054;28;20030;-59
2021/05/16 07:41:13;;;;;;;2.72;2.25;;;;;;;;;;4994641;28;20236;-58
2021/05/16 07:43:39;;;;;;;4.10;2.33;;;;;;;;;;4993910;28;20489;-57
2021/05/16 07:46:05;;;;;;;4.05;2.08;;;;;;;;;;4994270;28;20027;-58
2021/05/16 07:48:32;;;;;;;6.93;2.55;;;;;;;;;;4993934;28;20116;-58
2021/05/16 07:50:59;;;;;;;3.53;2.63;;;;;;;;;;4993012;28;20026;-59
2021/05/16 07:53:26;;;;;;;3.20;2.25;;;;;;;;;;4994143;28;20041;-58
2021/05/16 07:55:53;;;;;;;3.85;3.03;;;;;;;;;;4994098;28;20362;-59
2021/05/16 07:58:19;;;;;;;4.63;1.75;;;;;;;;;;4994109;28;20557;-58
2021/05/16 08:00:45;;;;;;;4.85;2.10;;;;;;;;;;4993831;28;20041;-59
2021/05/16 08:03:11;;;;;;;3.28;2.03;;;;;;;;;;4994300;28;20025;-57
2021/05/16 08:05:38;;;;;;;4.70;1.80;;;;;;;;;;4992294;28;20121;-58
2021/05/16 08:08:04;;;;;;;6.00;1.70;;;;;;;;;;4993040;28;20113;-57
2021/05/16 08:10:30;;;;;;;2.88;1.23;;;;;;;;;;4993989;28;20118;-57
2021/05/16 08:12:56;;;;;;;2.40;1.45;;;;;;;;;;4993811;28;20030;-59
2021/05/16 08:15:25;;;;;;;2.63;1.60;;;;;;;;;;4993805;28;20031;-58
2021/05/16 08:17:52;;;;;;;3.10;1.40;;;;;;;;;;4992407;28;20568;-57
2021/05/16 08:20:20;;;;;;;2.88;1.40;;;;;;;;;;4993862;28;20163;-58
2021/05/16 08:22:46;;;;;;;2.15;1.63;;;;;;;;;;4993986;28;20053;-59
2021/05/16 08:25:13;;;;;;;2.97;1.50;;;;;;;;;;4993478;28;20026;-58
2021/05/16 08:27:40;;;;;;;2.10;1.52;;;;;;;;;;4992027;28;20022;-58
2021/05/16 08:30:07;;;;;;;4.28;1.90;;;;;;;;;;4992218;28;20045;-58
2021/05/16 08:32:33;;;;;;;3.17;2.00;;;;;;;;;;4993236;28;20033;-58
2021/05/16 08:34:59;;;;;;;3.05;1.70;;;;;;;;;;4993276;28;20426;-58
2021/05/16 08:37:25;;;;;;;3.22;1.65;;;;;;;;;;4993095;28;20446;-58
2021/05/16 08:39:52;;;;;;;3.33;2.20;;;;;;;;;;4992803;28;20076;-58
2021/05/16 08:42:18;;;;;;;4.75;1.73;;;;;;;;;;4978797;28;20417;-60
2021/05/16 08:44:45;;;;;;;7.60;1.60;;;;;;;;;;4981207;28;20438;-59
2021/05/16 08:47:11;;;;;;;2.53;1.50;;;;;;;;;;4981792;28;20458;-58
2021/05/16 08:49:38;;;;;;;2.45;1.60;;;;;;;;;;4981071;28;20796;-59
2021/05/16 08:52:04;;;;;;;4.25;1.90;;;;;;;;;;4973547;28;21141;-58
2021/05/16 08:54:30;;;;;;;2.35;1.95;;;;;;;;;;4979078;28;20049;-59
2021/05/16 08:56:56;;;;;;;3.20;1.80;;;;;;;;;;4980424;28;20030;-57
2021/05/16 08:59:24;;;;;;;3.88;1.75;;;;;;;;;;4981085;28;20018;-59
2021/05/16 09:01:52;;;;;;;3.03;1.73;;;;;;;;;;4971547;28;20409;-54
2021/05/16 09:04:18;;;;;;;3.40;2.00;;;;;;;;;;4980686;28;20116;-58
2021/05/16 09:06:45;;;;;;;3.45;1.63;;;;;;;;;;4981354;28;20022;-58
2021/05/16 09:09:24;;;;;;;3.08;2.00;;;;;;;;;;4999064;28;20034;-58
2021/05/16 09:12:04;;;;;;;2.70;1.83;;;;;;;;;;4980679;28;20038;-58
2021/05/16 09:14:40;;;;;;;4.72;2.00;;;;;;;;;;4980410;28;20065;-58
2021/05/16 09:17:24;;;;;;;3.47;1.90;;;;;;;;;;4980130;28;20031;-57
2021/05/16 09:19:51;;;;;;;3.90;1.67;;;;;;;;;;4999169;28;20049;-57
2021/05/16 09:22:30;;;;;;;3.00;1.50;;;;;;;;;;4971842;28;20049;-58
2021/05/16 09:25:11;;;;;;;2.88;1.90;;;;;;;;;;4979883;28;20180;-58
2021/05/16 09:27:38;;;;;;;3.42;1.70;;;;;;;;;;4978602;28;20034;-59
2021/05/16 09:30:16;;;;;;;4.30;1.60;;;;;;;;;;4979592;28;20034;-57
2021/05/16 09:32:49;;;;;;;4.40;1.60;;;;;;;;;;4976512;28;20030;-57
2021/05/16 09:35:15;;;;;;;;;;;;;;;;;;4983364;28;21359;-58
2021/05/16 09:38:01;;;;;;;2.72;1.60;;;;;;;;;;4993372;28;19916;-59
2021/05/16 09:40:28;;;;;;;4.68;1.65;;;;;;;;;;4980598;28;20030;-57
2021/05/16 09:43:09;;;;;;;2.50;1.40;;;;;;;;;;4991041;28;20042;-57
2021/05/16 09:45:43;;;;;;;3.00;1.65;;;;;;;;;;4990339;28;20347;-59
2021/05/16 09:48:19;;;;;;;3.90;1.60;;;;;;;;;;4992442;28;20081;-58
2021/05/16 09:50:47;;;;;;;3.40;1.60;;;;;;;;;;4992563;28;20029;-59
2021/05/16 09:53:14;;;;;;;3.55;1.60;;;;;;;;;;4990332;28;20046;-58
2021/05/16 09:55:40;;;;;;;2.08;1.45;;;;;;;;;;4992186;28;20482;-59
2021/05/16 09:58:06;;;;;;;3.35;1.67;;;;;;;;;;4990754;28;20033;-58
2021/05/16 10:00:32;;;;;;;1.90;1.60;;;;;;;;;;4992101;28;20038;-59
2021/05/16 10:02:58;;;;;;;4.15;1.63;;;;;;;;;;4992295;28;20631;-58
2021/05/16 10:05:24;;;;;;;4.70;1.40;;;;;;;;;;4992521;28;20054;-58
2021/05/16 10:07:51;;;;;;;2.05;1.70;;;;;;;;;;4992259;28;20038;-57
2021/05/16 10:10:17;;;;;;;3.65;1.70;;;;;;;;;;4992388;28;20045;-58
2021/05/16 10:12:43;;;;;;;3.03;1.73;;;;;;;;;;4990864;28;20049;-58
2021/05/16 10:15:14;;;;;;;3.22;1.90;;;;;;;;;;4992277;28;20046;-58
2021/05/16 10:17:47;;;;;;;3.75;1.80;;;;;;;;;;4991867;28;20018;-58
2021/05/16 10:20:15;;;;;;;3.17;1.60;;;;;;;;;;4990175;28;20070;-59
2021/05/16 10:22:42;;;;;;;3.92;1.67;;;;;;;;;;4992148;28;20486;-58
2021/05/16 10:25:08;;;;;;;3.50;1.65;;;;;;;;;;4992140;28;20105;-58
2021/05/16 10:27:45;;;;;;;4.60;1.48;;;;;;;;;;4992575;28;20042;-59
2021/05/16 10:30:12;;;;;;;3.30;1.70;;;;;;;;;;4992465;28;20053;-59
2021/05/16 10:32:47;;;;;;;4.57;1.77;;;;;;;;;;4992813;28;20062;-58
2021/05/16 10:35:14;;;;;;;3.72;1.85;;;;;;;;;;4993226;28;20028;-58
2021/05/16 10:37:42;;;;;;;6.43;1.85;;;;;;;;;;4992453;28;20027;-58
2021/05/16 10:40:22;;;;;;;4.35;1.80;;;;;;;;;;4991469;28;20340;-58
2021/05/16 10:42:50;;;;;;;4.43;2.10;;;;;;;;;;4995671;28;20058;-58
2021/05/16 10:45:35;;;;;;;2.65;1.88;;;;;;;;;;4994303;28;20454;-58
2021/05/16 10:48:09;;;;;;;1.83;1.63;;;;;;;;;;4995623;28;20058;-58
2021/05/16 10:50:37;;;;;;;2.53;1.70;;;;;;;;;;4995444;28;20022;-59
2021/05/16 10:53:03;;;;;;;3.75;1.80;;;;;;;;;;4994407;28;20454;-59
2021/05/16 10:55:34;;;;;;;4.28;2.05;;;;;;;;;;4995495;28;20050;-59
2021/05/16 10:58:01;;;;;;;3.95;2.30;;;;;;;;;;4995642;28;20057;-59
2021/05/16 11:00:29;;;;;;;3.75;2.60;;;;;;;;;;4995535;28;20026;-58
2021/05/16 11:02:59;;;;;;;5.38;2.22;;;;;;;;;;4995417;28;20050;-57
2021/05/16 11:05:46;;;;;;;3.80;2.05;;;;;;;;;;4994283;28;20022;-57
2021/05/16 11:08:32;;;;;;;2.83;2.10;;;;;;;;;;4995482;28;20088;-58
2021/05/16 11:11:00;;;;;;;3.20;2.15;;;;;;;;;;4995193;28;20401;-58
2021/05/16 11:13:27;;;;;;;4.05;2.40;;;;;;;;;;4995272;28;20022;-58
2021/05/16 11:15:55;;;;;;;5.57;2.80;;;;;;;;;;4994906;28;20042;-58
2021/05/16 11:18:24;;;;;;;4.10;2.45;;;;;;;;;;4994959;28;20022;-57
2021/05/16 11:20:52;;;;;;;3.88;2.65;;;;;;;;;;4993423;28;20053;-59
2021/05/16 11:23:22;;;;;;;4.43;2.70;;;;;;;;;;4995038;28;20034;-57
2021/05/16 11:25:56;;;;;;;7.05;3.17;;;;;;;;;;4995364;28;20105;-59
2021/05/16 11:28:23;;;;;;;3.65;2.45;;;;;;;;;;4995044;28;20018;-58
2021/05/16 11:30:50;;;;;;;4.57;2.83;;;;;;;;;;4994686;28;20041;-59
2021/05/16 11:33:35;;;;;;;3.03;2.50;;;;;;;;;;4994826;28;20054;-59
2021/05/16 11:36:06;;;;;;;3.28;2.70;;;;;;;;;;4993592;28;20422;-58
2021/05/16 11:38:33;;;;;;;6.15;3.10;;;;;;;;;;4994833;28;20089;-59
2021/05/16 11:41:00;;;;;;;6.20;3.30;;;;;;;;;;4994560;28;20022;-58
2021/05/16 11:43:46;;;;;;;7.35;4.72;;;;;;;;;;4993052;28;20058;-58
2021/05/16 11:46:12;;;;;;;4.57;2.95;;;;;;;;;;4994549;28;20447;-58
2021/05/16 11:48:40;;;;;;;5.88;4.38;;;;;;;;;;4994222;28;20027;-58
2021/05/16 11:51:17;;;;;;;5.85;4.00;;;;;;;;;;4994138;28;20028;-58
2021/05/16 11:54:03;;;;;;;7.82;3.92;;;;;;;;;;4994463;28;20018;-59
2021/05/16 11:56:30;;;;;;;7.40;3.70;;;;;;;;;;4994273;28;20109;-59
2021/05/16 11:58:58;;;;;;;4.20;3.13;;;;;;;;;;4994112;28;20019;-57
2021/05/16 12:01:29;;;;;;;8.80;3.42;;;;;;;;;;4994257;28;20030;-58
2021/05/16 12:03:58;;;;;;;4.05;2.88;;;;;;;;;;4994050;28;20481;-59
2021/05/16 12:06:25;;;;;;;3.85;3.05;;;;;;;;;;4993950;28;20143;-58
2021/05/16 12:09:05;;;;;;;5.20;2.50;;;;;;;;;;4993857;28;20018;-59
2021/05/16 12:11:32;;;;;;;5.80;3.35;;;;;;;;;;4992678;28;20504;-58
2021/05/16 12:14:09;;;;;;;6.82;3.75;;;;;;;;;;4993551;28;20536;-59
2021/05/16 12:16:36;;;;;;;4.50;3.28;;;;;;;;;;4992420;28;20018;-59
2021/05/16 12:19:02;;;;;;;4.30;3.05;;;;;;;;;;4993994;28;20112;-59
2021/05/16 12:21:30;;;;;;;4.07;3.00;;;;;;;;;;4992036;28;20030;-59
2021/05/16 12:23:57;;;;;;;4.07;2.58;;;;;;;;;;4993878;28;20026;-58
2021/05/16 12:26:25;;;;;;;3.83;3.03;;;;;;;;;;4993821;28;20069;-58
2021/05/16 12:28:52;;;;;;;4.85;3.33;;;;;;;;;;4993890;28;20026;-58
2021/05/16 12:31:19;;;;;;;8.43;3.25;;;;;;;;;;4993475;28;20122;-57
2021/05/16 12:33:47;;;;;;;7.32;3.20;;;;;;;;;;4992072;28;20117;-58
2021/05/16 12:36:13;;;;;;;5.35;3.55;;;;;;;;;;4993423;28;20498;-58
2021/05/16 12:38:50;;;;;;;4.95;3.47;;;;;;;;;;4993355;28;20128;-58
2021/05/16 12:41:24;;;;;;;5.18;3.13;;;;;;;;;;4990771;28;20045;-59
2021/05/16 12:44:06;;;;;;;4.60;3.00;;;;;;;;;;5011179;28;20057;-58
2021/05/16 12:46:48;;;;;;;4.03;3.10;;;;;;;;;;5012678;28;20101;-60
2021/05/16 12:49:18;;;;;;;5.28;3.35;;;;;;;;;;5012692;28;20084;-58
2021/05/16 12:51:52;;;;;;;7.57;2.90;;;;;;;;;;5012977;28;20038;-58
2021/05/16 12:54:22;;;;;;;4.72;3.20;;;;;;;;;;5012899;28;20156;-59
2021/05/16 12:57:01;;;;;;;3.38;2.75;;;;;;;;;;5012823;28;20440;-57
2021/05/16 12:59:31;;;;;;;4.95;3.05;;;;;;;;;;5012776;28;20018;-58
2021/05/16 13:02:27;;;;;;;6.22;3.13;;;;;;;;;;5012722;28;20414;-58
2021/05/16 13:04:54;;;;;;;4.20;3.00;;;;;;;;;;4916664;29;20027;-58
2021/05/16 13:07:39;;;;;;;4.00;2.83;;;;;;;;;;4932928;29;20098;-58
2021/05/16 13:10:24;;;;;;;6.65;3.47;;;;;;;;;;4916869;29;20059;-58
2021/05/16 13:12:50;;;;;;;6.35;3.50;;;;;;;;;;4932815;29;20030;-57
2021/05/16 13:15:31;;;;;;;9.30;3.75;;;;;;;;;;4933061;29;20110;-58
2021/05/16 13:17:57;;;;;;;5.70;3.70;;;;;;;;;;4933114;29;20063;-58
2021/05/16 13:20:23;;;;;;;6.40;3.67;;;;;;;;;;4933085;29;20032;-59
2021/05/16 13:22:50;;;;;;;9.20;3.72;;;;;;;;;;4932962;29;20050;-58
2021/05/16 13:25:16;;;;;;;5.10;3.05;;;;;;;;;;4932687;29;20062;-59
2021/05/16 13:27:52;;;;;;;8.07;4.00;;;;;;;;;;4916668;29;20036;-59
2021/05/16 13:30:19;;;;;;;4.65;3.28;;;;;;;;;;4932915;29;20024;-58
2021/05/16 13:32:45;;;;;;;8.02;3.33;;;;;;;;;;4932832;29;20027;-59
2021/05/16 13:35:11;;;;;;;5.50;2.90;;;;;;;;;;4916975;29;20035;-58
2021/05/16 13:37:38;;;;;;;6.20;3.22;;;;;;;;;;4932844;29;20032;-58
2021/05/16 13:40:05;;;;;;;6.57;4.03;;;;;;;;;;4933697;28;20032;-58
2021/05/16 13:42:32;;;;;;;6.22;3.47;;;;;;;;;;5011620;28;20056;-59
2021/05/16 13:44:58;;;;;;;8.43;4.18;;;;;;;;;;5011331;28;20026;-59
2021/05/16 13:47:24;;;;;;;5.82;4.13;;;;;;;;;;5011912;28;20058;-58
2021/05/16 13:49:50;;;;;;;5.82;3.78;;;;;;;;;;5011993;28;20026;-58
2021/05/16 13:52:16;;;;;;;5.28;3.65;;;;;;;;;;5012063;28;20073;-57
2021/05/16 13:54:42;;;;;;;5.93;3.70;;;;;;;;;;5011943;28;20033;-59
2021/05/16 13:57:09;;;;;;;7.25;3.60;;;;;;;;;;5010596;28;20022;-58
2021/05/16 13:59:37;;;;;;;6.72;4.03;;;;;;;;;;5012345;28;20032;-58
2021/05/16 14:02:03;;;;;;;4.40;3.75;;;;;;;;;;5010769;28;20123;-59
2021/05/16 14:04:29;;;;;;;8.52;4.07;;;;;;;;;;5010616;28;20178;-58
2021/05/16 14:06:55;;;;;;;4.65;3.40;;;;;;;;;;4994557;28;20033;-58
2021/05/16 14:09:26;;;;;;;10.45;3.65;;;;;;;;;;5011860;28;20030;-58
2021/05/16 14:11:52;;;;;;;4.50;3.17;;;;;;;;;;5011876;28;20053;-59
2021/05/16 14:14:19;;;;;;;4.63;3.17;;;;;;;;;;5011972;28;20022;-59
2021/05/16 14:16:47;;;;;;;7.47;3.63;;;;;;;;;;5014873;28;20026;-59
2021/05/16 14:19:13;;;;;;;7.70;3.97;;;;;;;;;;5015779;28;20033;-59
2021/05/16 14:21:39;;;;;;;6.47;3.83;;;;;;;;;;5015741;28;20037;-59
2021/05/16 14:24:06;;;;;;;7.07;3.70;;;;;;;;;;5015802;28;20466;-57
2021/05/16 14:26:32;;;;;;;4.15;3.13;;;;;;;;;;5015822;28;20041;-57
2021/05/16 14:28:59;;;;;;;5.22;3.28;;;;;;;;;;5015629;28;20032;-60
2021/05/16 14:31:25;;;;;;;4.90;3.15;;;;;;;;;;5015650;28;20014;-59
2021/05/16 14:33:51;;;;;;;4.70;3.15;;;;;;;;;;5015377;28;20108;-59
2021/05/16 14:36:17;;;;;;;7.72;3.30;;;;;;;;;;5015373;28;20026;-59
2021/05/16 14:38:43;;;;;;;4.38;2.90;;;;;;;;;;5015445;28;20026;-58
2021/05/16 14:41:09;;;;;;;5.45;3.25;;;;;;;;;;5015294;28;20022;-58
2021/05/16 14:43:37;;;;;;;5.20;3.15;;;;;;;;;;5015095;28;20081;-58
2021/05/16 14:46:05;;;;;;;7.07;3.60;;;;;;;;;;5015456;28;20037;-58
2021/05/16 14:48:39;;;;;;;8.27;3.40;;;;;;;;;;5013779;28;20025;-58
2021/05/16 14:51:08;;;;;;;6.38;3.50;;;;;;;;;;5015591;28;20033;-58